• Join FlightAware (Why Join?)
  • Login
  • US Flag 
11:30AM EDT


 

Airport Tracker/Info


-or-


 

Live Flight TrackerFlight Track Log ✈ SKW6225 ✈ 13-Jul-2013 ✈ KORD - KDFW

Flight Track Log - Related Links

Times and Time Zones

All times are in EDT time to prevent confusion due to time zone crossing. See the SKW6225 flight status page for this flight to view local times or setup timezone preferences in your user account.

Time Position Orientation Groundspeed Altitude Reporting Facility
EDT Latitude Longitude Course Direction KTS MPH feet Rate Location/Type
04:59PM 41.9744 -87.8603 207° Southwest 176 203 38,000  Level Chicago Center
05:00PM 41.9306 -87.8897 207° Southwest 250 288 3,400 -15,240 Descending Chicago Center
05:01PM 41.8636 -87.9583 217° Southwest 253 291 6,600 2,400 Climbing Chicago Center
05:02PM 41.4834 -88.1300 197° South  Level FlightAware Approximate
05:02PM 41.8081 -87.9881 202° Southwest 267 307 8,400  Level Chicago Center
05:03PM 41.3577 -88.1795 201° Southwest  Level FlightAware Approximate
05:03PM 41.7000 -88.0403 200° South 295 339 11,600  Level Chicago Center
05:04PM 41.2370 -88.2476 207° Southwest  Level FlightAware Approximate
05:04PM 41.6131 -88.0814 199° South 333 383 13,000  Level Chicago Center
05:05PM 41.4994 -88.1367 200° South 366 421 15,100 1,860 Climbing Chicago Center
05:06PM 41.4014 -88.1839 200° South 390 449 16,900 1,560 Climbing Chicago Center
05:07PM 41.2989 -88.2292 198° South 397 457 18,400 1,620 Climbing Chicago Center
05:08PM 41.1928 -88.2769 199° South 405 466 20,300 1,560 Climbing Chicago Center
05:09PM 41.0644 -88.3361 199° South 412 474 21,700 1,080 Climbing Chicago Center
05:10PM 40.9500 -88.3856 198° South 429 494 22,600 1,080 Climbing Chicago Center
05:11PM 40.8319 -88.4389 199° South 448 516 24,000 1,200 Climbing Chicago Center
05:13PM 40.7183 -88.5086 205° Southwest 462 532 25,200 1,260 Climbing Chicago Center
05:14PM 40.6197 -88.6231 221° Southwest 474 545 26,700 1,260 Climbing Chicago Center
05:15PM 40.5000 -88.7581 221° Southwest 477 549 27,900 1,020 Climbing Chicago Center
05:16PM 40.4022 -88.8708 221° Southwest 484 557 28,900 960 Climbing Chicago Center
05:17PM 40.2972 -88.9911 221° Southwest 496 571 29,900 900 Climbing Chicago Center
05:18PM 40.1892 -89.1117 220° Southwest 508 585 30,800 720 Climbing Chicago Center
05:18PM 40.1233 -89.1850 220° Southwest 506 582 31,200 480 Climbing Kansas City Center
05:19PM 39.9889 -89.3350 221° Southwest 522 601 31,700 360 Climbing Kansas City Center
05:20PM 39.8739 -89.4642 221° Southwest 536 617 32,000 540 Climbing Kansas City Center
05:21PM 39.7553 -89.5967 221° Southwest 553 636 32,900 1,080 Climbing Kansas City Center
05:22PM 39.6297 -89.7364 221° Southwest 553 636 34,300 1,140 Climbing Kansas City Center
05:24PM 39.5175 -89.8597 220° Southwest 538 619 35,300 780 Climbing Kansas City Center
05:25PM 39.4047 -89.9842 220° Southwest 535 616 36,000 720 Climbing Kansas City Center
05:26PM 39.2917 -90.1089 221° Southwest 536 617 36,900 780 Climbing Kansas City Center
05:27PM 39.1797 -90.2331 221° Southwest 535 616 37,600 480 Climbing Kansas City Center
05:28PM 39.0667 -90.3561 220° Southwest 535 616 38,000 180 Climbing Kansas City Center
05:29PM 38.9386 -90.4953 220° Southwest 535 616 38,000  Level Kansas City Center
05:30PM 38.8239 -90.6175 220° Southwest 534 615 38,000  Level Kansas City Center
05:31PM 38.7058 -90.7447 220° Southwest 542 624 38,000  Level Kansas City Center
05:32PM 38.5917 -90.8644 219° Southwest 541 623 38,000  Level Kansas City Center
05:33PM 38.4778 -90.9844 220° Southwest 538 619 38,000  Level Kansas City Center
05:34PM 38.3414 -91.1269 219° Southwest 534 615 38,000  Level Kansas City Center
05:35PM 38.2267 -91.2450 219° Southwest 532 612 38,000  Level Kansas City Center
05:36PM 38.1064 -91.3689 219° Southwest 536 617 38,000  Level Kansas City Center
05:37PM 37.9911 -91.4908 220° Southwest 537 618 38,000  Level Kansas City Center
05:38PM 37.8769 -91.6106 220° Southwest 531 611 38,000  Level Kansas City Center
05:39PM 37.7606 -91.7303 219° Southwest 532 612 38,000  Level Kansas City Center
05:40PM 37.6450 -91.8494 219° Southwest 531 611 38,000  Level Kansas City Center
05:41PM 37.5278 -91.9697 219° Southwest 535 616 38,000  Level Kansas City Center
05:42PM 37.3947 -92.1161 221° Southwest 527 606 38,000  Level Kansas City Center
05:43PM 37.2853 -92.2369 221° Southwest 521 600 38,000  Level Kansas City Center
05:44PM 37.1753 -92.3592 222° Southwest 523 602 38,000  Level Kansas City Center
05:45PM 37.0664 -92.4783 221° Southwest 520 598 38,000  Level Kansas City Center
05:46PM 36.9575 -92.5975 221° Southwest 519 597 38,000  Level Kansas City Center
05:47PM 36.8489 -92.7169 221° Southwest 518 596 38,000  Level Kansas City Center
05:48PM 36.7419 -92.8333 221° Southwest 513 590 38,000  Level Kansas City Center
05:49PM 36.6367 -92.9481 221° Southwest 505 581 38,000  Level Kansas City Center
05:50PM 36.5197 -93.0750 221° Southwest 501 577 38,000  Level Kansas City Center
05:51PM 36.4156 -93.1858 221° Southwest 498 573 38,000  Level Kansas City Center
05:52PM 36.3522 -93.2583 223° Southwest 506 582 38,000  Level Memphis Center
05:53PM 36.2453 -93.3731 221° Southwest 506 582 38,000  Level Memphis Center
05:54PM 36.1383 -93.4847 220° Southwest 506 582 38,000  Level Memphis Center
05:55PM 36.0311 -93.5961 220° Southwest 506 582 38,000  Level Memphis Center
05:56PM 35.9239 -93.7125 221° Southwest 511 588 38,000  Level Memphis Center
05:57PM 35.8164 -93.8258 221° Southwest 511 588 38,000  Level Memphis Center
05:58PM 35.7092 -93.9364 220° Southwest 511 588 38,000  Level Memphis Center
05:59PM 35.5994 -94.0517 221° Southwest 516 594 38,000  Level Memphis Center
06:00PM 35.4894 -94.1667 220° Southwest 516 594 38,000  Level Memphis Center
06:01PM 35.3817 -94.2789 220° Southwest 516 594 38,000  Level Memphis Center
06:02PM 35.2758 -94.3933 221° Southwest 516 594 38,000  Level Memphis Center
06:03PM 35.1678 -94.5075 221° Southwest 516 594 38,000  Level Memphis Center
06:05PM 34.9972 -94.6967 222° Southwest 517 595 38,000  Level Fort Worth Center
06:06PM 34.8914 -94.8139 222° Southwest 522 601 38,000  Level Fort Worth Center
06:07PM 34.7850 -94.9283 221° Southwest 522 601 38,000  Level Fort Worth Center
06:08PM 34.6747 -95.0450 221° Southwest 516 594 38,000  Level Fort Worth Center
06:09PM 34.5664 -95.1592 221° Southwest 516 594 38,000  Level Fort Worth Center
06:10PM 34.4578 -95.2753 221° Southwest 521 600 38,000 -660 Level Fort Worth Center
06:11PM 34.3325 -95.3967 219° Southwest 530 610 36,700 -2,100 Descending Fort Worth Center
06:12PM 34.2175 -95.5097 219° Southwest 535 616 33,800 -3,000 Descending Fort Worth Center
06:13PM 34.1064 -95.6175 219° Southwest 535 616 30,800 -2,940 Descending Fort Worth Center
06:14PM 34.0014 -95.7197 219° Southwest 521 600 28,000 -2,940 Descending Fort Worth Center
06:15PM 33.8983 -95.8269 221° Southwest 502 578 25,000 -3,000 Descending Fort Worth Center
06:16PM 33.7994 -95.9214 218° Southwest 486 559 22,100 -2,640 Descending Fort Worth Center
06:17PM 33.7086 -96.0128 220° Southwest 454 522 19,800 -2,280 Descending Fort Worth Center
06:18PM 33.6197 -96.0989 219° Southwest 415 478 17,600 -2,100 Descending Fort Worth Center
06:19PM 33.5411 -96.1772 220° Southwest 388 447 15,700 -2,400 Descending Fort Worth Center
06:20PM 33.4667 -96.2506 219° Southwest 362 417 12,900 -2,100 Descending Fort Worth Center
06:21PM 33.4006 -96.3236 223° Southwest 338 389 11,500 -1,260 Descending Fort Worth Center
06:22PM 33.3492 -96.4039 233° Southwest 315 362 10,400 -1,260 Descending Fort Worth Center
06:23PM 33.3206 -96.4861 247° West 307 353 9,000 -1,320 Descending Fort Worth Center
06:24PM 33.2919 -96.5758 249° West 301 346 7,800 -1,200 Descending Fort Worth Center
06:25PM 33.2611 -96.6756 250° West 301 346 6,600 -1,200 Descending Fort Worth Center
06:26PM 33.2344 -96.7553 248° West 290 334 5,400 -780 Descending Fort Worth Center
06:27PM 33.1911 -96.8425 239° Southwest 285 328 5,100 -600 Descending Fort Worth Center
06:28PM 33.1414 -96.9072 227° Southwest 291 335 4,300 -840 Descending Fort Worth Center
06:29PM 33.0872 -96.9719 225° Southwest 275 316 3,500 -780 Descending Fort Worth Center
06:30PM 33.0414 -97.0094 214° Southwest 235 270 2,800 -720 Descending Fort Worth Center